sensor_id;sensor_type;location;lat;lon;timestamp;P1;durP1;ratioP1;P2;durP2;ratioP2
4939;SDS011;2485;49.326;7.214;2024-03-08T00:00:33;29.80;;;12.50;;
4939;SDS011;2485;49.326;7.214;2024-03-08T00:02:59;25.47;;;12.77;;
4939;SDS011;2485;49.326;7.214;2024-03-08T00:05:26;26.57;;;14.73;;
4939;SDS011;2485;49.326;7.214;2024-03-08T00:07:52;22.03;;;12.47;;
4939;SDS011;2485;49.326;7.214;2024-03-08T00:10:19;23.63;;;12.47;;
4939;SDS011;2485;49.326;7.214;2024-03-08T00:12:48;26.80;;;14.70;;
4939;SDS011;2485;49.326;7.214;2024-03-08T00:15:16;24.07;;;12.77;;
4939;SDS011;2485;49.326;7.214;2024-03-08T00:17:43;29.47;;;13.57;;
4939;SDS011;2485;49.326;7.214;2024-03-08T00:20:10;27.57;;;10.97;;
4939;SDS011;2485;49.326;7.214;2024-03-08T00:22:36;24.30;;;12.83;;
4939;SDS011;2485;49.326;7.214;2024-03-08T00:25:03;28.97;;;15.07;;
4939;SDS011;2485;49.326;7.214;2024-03-08T00:27:30;25.30;;;14.00;;
4939;SDS011;2485;49.326;7.214;2024-03-08T00:29:58;23.67;;;12.40;;
4939;SDS011;2485;49.326;7.214;2024-03-08T00:32:25;26.70;;;13.27;;
4939;SDS011;2485;49.326;7.214;2024-03-08T00:34:52;26.03;;;12.83;;
4939;SDS011;2485;49.326;7.214;2024-03-08T00:37:19;28.70;;;14.67;;
4939;SDS011;2485;49.326;7.214;2024-03-08T00:39:45;25.80;;;13.37;;
4939;SDS011;2485;49.326;7.214;2024-03-08T00:42:11;28.40;;;13.70;;
4939;SDS011;2485;49.326;7.214;2024-03-08T00:44:38;31.67;;;15.20;;
4939;SDS011;2485;49.326;7.214;2024-03-08T00:47:06;26.63;;;13.23;;
4939;SDS011;2485;49.326;7.214;2024-03-08T00:49:33;35.40;;;15.67;;
4939;SDS011;2485;49.326;7.214;2024-03-08T00:52:01;27.77;;;14.00;;
4939;SDS011;2485;49.326;7.214;2024-03-08T00:54:28;23.03;;;13.97;;
4939;SDS011;2485;49.326;7.214;2024-03-08T00:56:55;26.97;;;13.87;;
4939;SDS011;2485;49.326;7.214;2024-03-08T00:59:22;29.53;;;15.27;;
4939;SDS011;2485;49.326;7.214;2024-03-08T01:01:48;29.23;;;15.63;;
4939;SDS011;2485;49.326;7.214;2024-03-08T01:04:16;26.37;;;13.90;;
4939;SDS011;2485;49.326;7.214;2024-03-08T01:06:44;32.13;;;14.50;;
4939;SDS011;2485;49.326;7.214;2024-03-08T01:09:12;30.10;;;15.07;;
4939;SDS011;2485;49.326;7.214;2024-03-08T01:11:39;32.23;;;14.40;;
4939;SDS011;2485;49.326;7.214;2024-03-08T01:14:07;30.77;;;15.17;;
4939;SDS011;2485;49.326;7.214;2024-03-08T01:16:33;30.83;;;15.70;;
4939;SDS011;2485;49.326;7.214;2024-03-08T01:19:00;25.07;;;13.33;;
4939;SDS011;2485;49.326;7.214;2024-03-08T01:21:28;32.40;;;14.60;;
4939;SDS011;2485;49.326;7.214;2024-03-08T01:23:54;31.83;;;15.47;;
4939;SDS011;2485;49.326;7.214;2024-03-08T01:26:21;28.90;;;14.07;;
4939;SDS011;2485;49.326;7.214;2024-03-08T01:28:48;30.23;;;15.00;;
4939;SDS011;2485;49.326;7.214;2024-03-08T01:31:15;23.70;;;12.37;;
4939;SDS011;2485;49.326;7.214;2024-03-08T01:33:41;26.50;;;13.03;;
4939;SDS011;2485;49.326;7.214;2024-03-08T01:36:08;25.97;;;13.33;;
4939;SDS011;2485;49.326;7.214;2024-03-08T01:38:35;27.83;;;15.23;;
4939;SDS011;2485;49.326;7.214;2024-03-08T01:41:02;32.13;;;15.97;;
4939;SDS011;2485;49.326;7.214;2024-03-08T01:43:29;30.67;;;16.23;;
4939;SDS011;2485;49.326;7.214;2024-03-08T01:45:55;29.50;;;13.87;;
4939;SDS011;2485;49.326;7.214;2024-03-08T01:48:23;32.80;;;15.93;;
4939;SDS011;2485;49.326;7.214;2024-03-08T01:50:50;30.57;;;14.30;;
4939;SDS011;2485;49.326;7.214;2024-03-08T01:53:18;34.00;;;16.80;;
4939;SDS011;2485;49.326;7.214;2024-03-08T01:55:46;31.60;;;15.90;;
4939;SDS011;2485;49.326;7.214;2024-03-08T01:58:13;36.10;;;16.50;;
4939;SDS011;2485;49.326;7.214;2024-03-08T02:00:41;29.93;;;14.77;;
4939;SDS011;2485;49.326;7.214;2024-03-08T02:03:08;30.83;;;13.77;;
4939;SDS011;2485;49.326;7.214;2024-03-08T02:05:35;27.73;;;13.03;;
4939;SDS011;2485;49.326;7.214;2024-03-08T02:08:03;37.43;;;17.37;;
4939;SDS011;2485;49.326;7.214;2024-03-08T02:10:31;29.43;;;13.50;;
4939;SDS011;2485;49.326;7.214;2024-03-08T02:12:58;24.80;;;12.30;;
4939;SDS011;2485;49.326;7.214;2024-03-08T02:15:25;32.73;;;16.40;;
4939;SDS011;2485;49.326;7.214;2024-03-08T02:17:52;22.87;;;10.43;;
4939;SDS011;2485;49.326;7.214;2024-03-08T02:20:19;24.80;;;10.23;;
4939;SDS011;2485;49.326;7.214;2024-03-08T02:22:47;29.80;;;13.97;;
4939;SDS011;2485;49.326;7.214;2024-03-08T02:25:16;32.50;;;16.70;;
4939;SDS011;2485;49.326;7.214;2024-03-08T02:27:42;33.37;;;15.23;;
4939;SDS011;2485;49.326;7.214;2024-03-08T02:30:09;31.87;;;14.07;;
4939;SDS011;2485;49.326;7.214;2024-03-08T02:32:37;31.47;;;15.27;;
4939;SDS011;2485;49.326;7.214;2024-03-08T02:35:04;31.37;;;14.63;;
4939;SDS011;2485;49.326;7.214;2024-03-08T02:37:31;33.00;;;17.10;;
4939;SDS011;2485;49.326;7.214;2024-03-08T02:39:59;35.67;;;15.80;;
4939;SDS011;2485;49.326;7.214;2024-03-08T02:42:25;31.70;;;16.17;;
4939;SDS011;2485;49.326;7.214;2024-03-08T02:44:52;33.20;;;17.00;;
4939;SDS011;2485;49.326;7.214;2024-03-08T02:47:19;25.40;;;12.57;;
4939;SDS011;2485;49.326;7.214;2024-03-08T02:49:45;33.53;;;15.07;;
4939;SDS011;2485;49.326;7.214;2024-03-08T02:52:12;31.03;;;15.70;;
4939;SDS011;2485;49.326;7.214;2024-03-08T02:54:38;24.13;;;10.77;;
4939;SDS011;2485;49.326;7.214;2024-03-08T02:57:06;23.03;;;12.10;;
4939;SDS011;2485;49.326;7.214;2024-03-08T02:59:33;32.13;;;14.57;;
4939;SDS011;2485;49.326;7.214;2024-03-08T03:02:00;28.97;;;14.80;;
4939;SDS011;2485;49.326;7.214;2024-03-08T03:04:27;27.33;;;12.57;;
4939;SDS011;2485;49.326;7.214;2024-03-08T03:06:54;29.93;;;14.90;;
4939;SDS011;2485;49.326;7.214;2024-03-08T03:09:20;17.57;;;8.97;;
4939;SDS011;2485;49.326;7.214;2024-03-08T03:11:52;34.90;;;17.43;;
4939;SDS011;2485;49.326;7.214;2024-03-08T03:14:20;27.33;;;12.20;;
4939;SDS011;2485;49.326;7.214;2024-03-08T03:16:47;29.00;;;13.87;;
4939;SDS011;2485;49.326;7.214;2024-03-08T03:19:13;35.00;;;16.77;;
4939;SDS011;2485;49.326;7.214;2024-03-08T03:21:40;30.97;;;16.00;;
4939;SDS011;2485;49.326;7.214;2024-03-08T03:24:08;33.73;;;16.43;;
4939;SDS011;2485;49.326;7.214;2024-03-08T03:26:35;19.80;;;10.50;;
4939;SDS011;2485;49.326;7.214;2024-03-08T03:29:04;28.97;;;14.30;;
4939;SDS011;2485;49.326;7.214;2024-03-08T03:31:32;26.53;;;13.87;;
4939;SDS011;2485;49.326;7.214;2024-03-08T03:33:59;32.43;;;14.47;;
4939;SDS011;2485;49.326;7.214;2024-03-08T03:36:28;30.80;;;11.07;;
4939;SDS011;2485;49.326;7.214;2024-03-08T03:38:54;28.87;;;12.80;;
4939;SDS011;2485;49.326;7.214;2024-03-08T03:41:30;37.87;;;17.60;;
4939;SDS011;2485;49.326;7.214;2024-03-08T03:43:56;35.43;;;17.10;;
4939;SDS011;2485;49.326;7.214;2024-03-08T03:46:24;30.67;;;14.00;;
4939;SDS011;2485;49.326;7.214;2024-03-08T03:48:53;28.10;;;12.83;;
4939;SDS011;2485;49.326;7.214;2024-03-08T03:51:20;46.63;;;18.33;;
4939;SDS011;2485;49.326;7.214;2024-03-08T03:53:47;37.30;;;16.73;;
4939;SDS011;2485;49.326;7.214;2024-03-08T03:56:13;32.83;;;15.83;;
4939;SDS011;2485;49.326;7.214;2024-03-08T03:58:40;37.20;;;17.47;;
4939;SDS011;2485;49.326;7.214;2024-03-08T04:01:07;44.73;;;17.77;;
4939;SDS011;2485;49.326;7.214;2024-03-08T04:03:34;39.20;;;18.43;;
4939;SDS011;2485;49.326;7.214;2024-03-08T04:06:03;36.27;;;14.57;;
4939;SDS011;2485;49.326;7.214;2024-03-08T04:08:29;34.40;;;14.77;;
4939;SDS011;2485;49.326;7.214;2024-03-08T04:10:56;37.57;;;16.57;;
4939;SDS011;2485;49.326;7.214;2024-03-08T04:13:23;36.40;;;16.13;;
4939;SDS011;2485;49.326;7.214;2024-03-08T04:15:49;32.10;;;14.93;;
4939;SDS011;2485;49.326;7.214;2024-03-08T04:18:16;39.80;;;18.33;;
4939;SDS011;2485;49.326;7.214;2024-03-08T04:20:43;32.07;;;15.00;;
4939;SDS011;2485;49.326;7.214;2024-03-08T04:23:11;30.50;;;14.83;;
4939;SDS011;2485;49.326;7.214;2024-03-08T04:25:37;32.77;;;14.50;;
4939;SDS011;2485;49.326;7.214;2024-03-08T04:28:04;38.37;;;16.80;;
4939;SDS011;2485;49.326;7.214;2024-03-08T04:30:31;34.07;;;16.63;;
4939;SDS011;2485;49.326;7.214;2024-03-08T04:32:57;37.47;;;17.70;;
4939;SDS011;2485;49.326;7.214;2024-03-08T04:35:24;35.83;;;14.80;;
4939;SDS011;2485;49.326;7.214;2024-03-08T04:37:51;39.27;;;17.87;;
4939;SDS011;2485;49.326;7.214;2024-03-08T04:40:19;27.77;;;12.43;;
4939;SDS011;2485;49.326;7.214;2024-03-08T04:42:45;22.47;;;11.07;;
4939;SDS011;2485;49.326;7.214;2024-03-08T04:45:14;35.37;;;16.07;;
4939;SDS011;2485;49.326;7.214;2024-03-08T04:47:40;37.67;;;16.07;;
4939;SDS011;2485;49.326;7.214;2024-03-08T04:50:07;37.53;;;16.57;;
4939;SDS011;2485;49.326;7.214;2024-03-08T04:52:34;32.30;;;15.50;;
4939;SDS011;2485;49.326;7.214;2024-03-08T04:55:01;38.70;;;18.43;;
4939;SDS011;2485;49.326;7.214;2024-03-08T04:57:31;35.00;;;17.13;;
4939;SDS011;2485;49.326;7.214;2024-03-08T04:59:57;26.03;;;12.90;;
4939;SDS011;2485;49.326;7.214;2024-03-08T05:02:24;29.53;;;13.03;;
4939;SDS011;2485;49.326;7.214;2024-03-08T05:04:50;31.77;;;13.00;;
4939;SDS011;2485;49.326;7.214;2024-03-08T05:07:17;35.13;;;17.00;;
4939;SDS011;2485;49.326;7.214;2024-03-08T05:09:44;31.47;;;14.07;;
4939;SDS011;2485;49.326;7.214;2024-03-08T05:12:16;34.67;;;15.30;;
4939;SDS011;2485;49.326;7.214;2024-03-08T05:14:44;26.00;;;13.00;;
4939;SDS011;2485;49.326;7.214;2024-03-08T05:17:11;28.40;;;13.03;;
4939;SDS011;2485;49.326;7.214;2024-03-08T05:19:38;31.07;;;16.10;;
4939;SDS011;2485;49.326;7.214;2024-03-08T05:22:04;31.97;;;15.40;;
4939;SDS011;2485;49.326;7.214;2024-03-08T05:24:31;28.37;;;11.90;;
4939;SDS011;2485;49.326;7.214;2024-03-08T05:26:58;24.87;;;12.17;;
4939;SDS011;2485;49.326;7.214;2024-03-08T05:29:25;30.23;;;14.50;;
4939;SDS011;2485;49.326;7.214;2024-03-08T05:31:54;32.43;;;13.40;;
4939;SDS011;2485;49.326;7.214;2024-03-08T05:34:20;36.53;;;18.63;;
4939;SDS011;2485;49.326;7.214;2024-03-08T05:36:47;33.17;;;15.60;;
4939;SDS011;2485;49.326;7.214;2024-03-08T05:39:15;35.30;;;15.73;;
4939;SDS011;2485;49.326;7.214;2024-03-08T05:41:42;33.33;;;18.93;;
4939;SDS011;2485;49.326;7.214;2024-03-08T05:44:09;32.53;;;15.77;;
4939;SDS011;2485;49.326;7.214;2024-03-08T05:46:35;32.13;;;12.63;;
4939;SDS011;2485;49.326;7.214;2024-03-08T05:49:04;31.60;;;16.50;;
4939;SDS011;2485;49.326;7.214;2024-03-08T05:51:32;35.00;;;15.43;;
4939;SDS011;2485;49.326;7.214;2024-03-08T05:54:03;34.10;;;14.70;;
4939;SDS011;2485;49.326;7.214;2024-03-08T05:56:30;30.77;;;14.20;;
4939;SDS011;2485;49.326;7.214;2024-03-08T05:58:59;23.07;;;11.10;;
4939;SDS011;2485;49.326;7.214;2024-03-08T06:01:27;15.27;;;6.80;;
4939;SDS011;2485;49.326;7.214;2024-03-08T06:03:56;16.93;;;8.00;;
4939;SDS011;2485;49.326;7.214;2024-03-08T06:06:27;29.50;;;13.73;;
4939;SDS011;2485;49.326;7.214;2024-03-08T06:08:55;28.07;;;14.20;;
4939;SDS011;2485;49.326;7.214;2024-03-08T06:11:24;35.17;;;16.00;;
4939;SDS011;2485;49.326;7.214;2024-03-08T06:13:53;30.53;;;14.90;;
4939;SDS011;2485;49.326;7.214;2024-03-08T06:16:25;30.80;;;14.83;;
4939;SDS011;2485;49.326;7.214;2024-03-08T06:18:55;37.33;;;16.80;;
4939;SDS011;2485;49.326;7.214;2024-03-08T06:21:23;27.30;;;13.30;;
4939;SDS011;2485;49.326;7.214;2024-03-08T06:23:54;17.73;;;8.43;;
4939;SDS011;2485;49.326;7.214;2024-03-08T06:26:23;29.27;;;13.37;;
4939;SDS011;2485;49.326;7.214;2024-03-08T06:28:54;24.80;;;12.47;;
4939;SDS011;2485;49.326;7.214;2024-03-08T06:31:22;20.93;;;9.90;;
4939;SDS011;2485;49.326;7.214;2024-03-08T06:33:51;34.53;;;15.70;;
4939;SDS011;2485;49.326;7.214;2024-03-08T06:36:20;26.20;;;14.53;;
4939;SDS011;2485;49.326;7.214;2024-03-08T06:38:48;29.27;;;12.90;;
4939;SDS011;2485;49.326;7.214;2024-03-08T06:41:20;18.47;;;8.97;;
4939;SDS011;2485;49.326;7.214;2024-03-08T06:43:47;22.67;;;10.13;;
4939;SDS011;2485;49.326;7.214;2024-03-08T06:46:17;31.23;;;14.77;;
4939;SDS011;2485;49.326;7.214;2024-03-08T06:48:46;32.03;;;15.20;;
4939;SDS011;2485;49.326;7.214;2024-03-08T06:51:15;23.07;;;11.93;;
4939;SDS011;2485;49.326;7.214;2024-03-08T06:53:42;26.00;;;9.90;;
4939;SDS011;2485;49.326;7.214;2024-03-08T06:56:10;21.93;;;9.67;;
4939;SDS011;2485;49.326;7.214;2024-03-08T06:58:40;13.57;;;6.60;;
4939;SDS011;2485;49.326;7.214;2024-03-08T07:01:08;22.07;;;11.23;;
4939;SDS011;2485;49.326;7.214;2024-03-08T07:03:40;17.83;;;8.40;;
4939;SDS011;2485;49.326;7.214;2024-03-08T07:06:09;17.27;;;9.07;;
4939;SDS011;2485;49.326;7.214;2024-03-08T07:08:37;29.17;;;13.37;;
4939;SDS011;2485;49.326;7.214;2024-03-08T07:11:05;27.57;;;13.37;;
4939;SDS011;2485;49.326;7.214;2024-03-08T07:13:33;25.90;;;12.60;;
4939;SDS011;2485;49.326;7.214;2024-03-08T07:16:03;17.17;;;9.57;;
4939;SDS011;2485;49.326;7.214;2024-03-08T07:18:30;27.10;;;11.57;;
4939;SDS011;2485;49.326;7.214;2024-03-08T07:20:59;20.20;;;9.77;;
4939;SDS011;2485;49.326;7.214;2024-03-08T07:23:27;22.23;;;10.77;;
4939;SDS011;2485;49.326;7.214;2024-03-08T07:26:08;27.23;;;13.90;;
4939;SDS011;2485;49.326;7.214;2024-03-08T07:28:36;27.53;;;13.60;;
4939;SDS011;2485;49.326;7.214;2024-03-08T07:31:05;29.30;;;15.23;;
4939;SDS011;2485;49.326;7.214;2024-03-08T07:33:48;26.00;;;12.67;;
4939;SDS011;2485;49.326;7.214;2024-03-08T07:36:19;21.40;;;11.37;;
4939;SDS011;2485;49.326;7.214;2024-03-08T07:38:48;25.27;;;9.80;;
4939;SDS011;2485;49.326;7.214;2024-03-08T07:41:16;30.33;;;14.30;;
4939;SDS011;2485;49.326;7.214;2024-03-08T07:43:43;25.13;;;12.20;;
4939;SDS011;2485;49.326;7.214;2024-03-08T07:46:14;25.97;;;11.83;;
4939;SDS011;2485;49.326;7.214;2024-03-08T07:48:45;19.73;;;10.30;;
4939;SDS011;2485;49.326;7.214;2024-03-08T07:51:15;26.80;;;11.73;;
4939;SDS011;2485;49.326;7.214;2024-03-08T07:53:43;22.67;;;11.40;;
4939;SDS011;2485;49.326;7.214;2024-03-08T07:56:12;16.97;;;8.60;;
4939;SDS011;2485;49.326;7.214;2024-03-08T07:58:42;20.27;;;10.30;;
4939;SDS011;2485;49.326;7.214;2024-03-08T08:01:17;22.23;;;11.27;;
4939;SDS011;2485;49.326;7.214;2024-03-08T08:03:45;20.60;;;9.80;;
4939;SDS011;2485;49.326;7.214;2024-03-08T08:06:15;24.33;;;12.67;;
4939;SDS011;2485;49.326;7.214;2024-03-08T08:08:42;21.67;;;9.60;;
4939;SDS011;2485;49.326;7.214;2024-03-08T08:11:10;24.03;;;10.70;;
4939;SDS011;2485;49.326;7.214;2024-03-08T08:13:38;25.70;;;13.53;;
4939;SDS011;2485;49.326;7.214;2024-03-08T08:16:08;25.73;;;13.10;;
4939;SDS011;2485;49.326;7.214;2024-03-08T08:18:40;18.47;;;10.07;;
4939;SDS011;2485;49.326;7.214;2024-03-08T08:21:07;19.70;;;9.70;;
4939;SDS011;2485;49.326;7.214;2024-03-08T08:23:36;21.63;;;10.70;;
4939;SDS011;2485;49.326;7.214;2024-03-08T08:26:05;23.40;;;12.93;;
4939;SDS011;2485;49.326;7.214;2024-03-08T08:28:36;23.87;;;12.17;;
4939;SDS011;2485;49.326;7.214;2024-03-08T08:31:06;25.10;;;14.00;;
4939;SDS011;2485;49.326;7.214;2024-03-08T08:33:33;22.87;;;9.50;;
4939;SDS011;2485;49.326;7.214;2024-03-08T08:36:04;25.27;;;12.40;;
4939;SDS011;2485;49.326;7.214;2024-03-08T08:38:33;25.07;;;9.27;;
4939;SDS011;2485;49.326;7.214;2024-03-08T08:41:00;21.30;;;8.87;;
4939;SDS011;2485;49.326;7.214;2024-03-08T08:43:29;21.00;;;10.83;;
4939;SDS011;2485;49.326;7.214;2024-03-08T08:45:58;14.53;;;8.33;;
4939;SDS011;2485;49.326;7.214;2024-03-08T08:48:26;20.63;;;9.30;;
4939;SDS011;2485;49.326;7.214;2024-03-08T08:50:54;20.20;;;10.50;;
4939;SDS011;2485;49.326;7.214;2024-03-08T08:56:36;24.20;;;12.50;;
4939;SDS011;2485;49.326;7.214;2024-03-08T08:59:06;22.70;;;11.20;;
4939;SDS011;2485;49.326;7.214;2024-03-08T09:01:33;16.37;;;8.60;;
4939;SDS011;2485;49.326;7.214;2024-03-08T09:04:01;22.83;;;12.60;;
4939;SDS011;2485;49.326;7.214;2024-03-08T09:06:29;21.93;;;11.47;;
4939;SDS011;2485;49.326;7.214;2024-03-08T09:08:57;28.33;;;13.83;;
4939;SDS011;2485;49.326;7.214;2024-03-08T09:11:24;22.20;;;11.33;;
4939;SDS011;2485;49.326;7.214;2024-03-08T09:13:53;23.73;;;12.50;;
4939;SDS011;2485;49.326;7.214;2024-03-08T09:16:21;26.93;;;11.10;;
4939;SDS011;2485;49.326;7.214;2024-03-08T09:18:50;19.50;;;10.67;;
4939;SDS011;2485;49.326;7.214;2024-03-08T09:21:17;14.30;;;8.23;;
4939;SDS011;2485;49.326;7.214;2024-03-08T09:23:47;27.67;;;11.33;;
4939;SDS011;2485;49.326;7.214;2024-03-08T09:26:15;16.30;;;7.67;;
4939;SDS011;2485;49.326;7.214;2024-03-08T09:28:43;25.80;;;14.23;;
4939;SDS011;2485;49.326;7.214;2024-03-08T09:31:13;20.07;;;10.70;;
4939;SDS011;2485;49.326;7.214;2024-03-08T09:33:41;17.50;;;6.87;;
4939;SDS011;2485;49.326;7.214;2024-03-08T09:36:10;16.70;;;9.27;;
4939;SDS011;2485;49.326;7.214;2024-03-08T09:38:38;15.97;;;8.97;;
4939;SDS011;2485;49.326;7.214;2024-03-08T09:41:06;18.03;;;8.50;;
4939;SDS011;2485;49.326;7.214;2024-03-08T09:43:35;29.23;;;12.30;;
4939;SDS011;2485;49.326;7.214;2024-03-08T09:46:03;16.43;;;7.83;;
4939;SDS011;2485;49.326;7.214;2024-03-08T09:48:33;27.33;;;12.33;;
4939;SDS011;2485;49.326;7.214;2024-03-08T09:51:02;26.73;;;13.10;;
4939;SDS011;2485;49.326;7.214;2024-03-08T09:53:29;17.73;;;10.97;;
4939;SDS011;2485;49.326;7.214;2024-03-08T09:55:57;20.97;;;8.80;;
4939;SDS011;2485;49.326;7.214;2024-03-08T09:58:29;23.97;;;12.80;;
4939;SDS011;2485;49.326;7.214;2024-03-08T10:01:13;21.67;;;12.30;;
4939;SDS011;2485;49.326;7.214;2024-03-08T10:03:41;16.73;;;8.23;;
4939;SDS011;2485;49.326;7.214;2024-03-08T10:06:09;22.57;;;10.60;;
4939;SDS011;2485;49.326;7.214;2024-03-08T10:08:38;27.83;;;13.17;;
4939;SDS011;2485;49.326;7.214;2024-03-08T10:11:08;18.27;;;9.17;;
4939;SDS011;2485;49.326;7.214;2024-03-08T10:13:39;23.17;;;9.00;;
4939;SDS011;2485;49.326;7.214;2024-03-08T10:16:07;16.73;;;9.60;;
4939;SDS011;2485;49.326;7.214;2024-03-08T10:18:35;18.00;;;9.47;;
4939;SDS011;2485;49.326;7.214;2024-03-08T10:21:05;20.67;;;11.20;;
4939;SDS011;2485;49.326;7.214;2024-03-08T10:23:34;16.10;;;8.17;;
4939;SDS011;2485;49.326;7.214;2024-03-08T10:26:11;12.60;;;7.67;;
4939;SDS011;2485;49.326;7.214;2024-03-08T10:28:40;25.67;;;14.00;;
4939;SDS011;2485;49.326;7.214;2024-03-08T10:31:10;25.40;;;12.10;;
4939;SDS011;2485;49.326;7.214;2024-03-08T10:33:37;21.50;;;11.50;;
4939;SDS011;2485;49.326;7.214;2024-03-08T10:36:08;21.40;;;11.70;;
4939;SDS011;2485;49.326;7.214;2024-03-08T10:38:37;12.90;;;8.10;;
4939;SDS011;2485;49.326;7.214;2024-03-08T10:41:05;26.03;;;13.80;;
4939;SDS011;2485;49.326;7.214;2024-03-08T10:43:39;21.17;;;7.27;;
4939;SDS011;2485;49.326;7.214;2024-03-08T10:46:15;23.93;;;11.30;;
4939;SDS011;2485;49.326;7.214;2024-03-08T10:48:49;24.80;;;13.00;;
4939;SDS011;2485;49.326;7.214;2024-03-08T10:51:19;18.10;;;10.67;;
4939;SDS011;2485;49.326;7.214;2024-03-08T10:53:50;19.63;;;11.23;;
4939;SDS011;2485;49.326;7.214;2024-03-08T10:56:19;29.80;;;11.43;;
4939;SDS011;2485;49.326;7.214;2024-03-08T10:58:48;18.27;;;9.43;;
4939;SDS011;2485;49.326;7.214;2024-03-08T11:01:16;23.23;;;12.50;;
4939;SDS011;2485;49.326;7.214;2024-03-08T11:03:46;17.30;;;9.47;;
4939;SDS011;2485;49.326;7.214;2024-03-08T11:06:17;24.13;;;12.07;;
4939;SDS011;2485;49.326;7.214;2024-03-08T11:08:50;18.97;;;9.93;;
4939;SDS011;2485;49.326;7.214;2024-03-08T11:11:24;21.60;;;10.17;;
4939;SDS011;2485;49.326;7.214;2024-03-08T11:13:55;23.67;;;12.40;;
4939;SDS011;2485;49.326;7.214;2024-03-08T11:16:37;15.23;;;8.77;;
4939;SDS011;2485;49.326;7.214;2024-03-08T11:19:06;16.70;;;10.50;;
4939;SDS011;2485;49.326;7.214;2024-03-08T11:21:36;22.90;;;12.93;;
4939;SDS011;2485;49.326;7.214;2024-03-08T11:24:08;19.47;;;7.80;;
4939;SDS011;2485;49.326;7.214;2024-03-08T11:26:39;22.43;;;11.27;;
4939;SDS011;2485;49.326;7.214;2024-03-08T11:32:04;24.73;;;10.87;;
4939;SDS011;2485;49.326;7.214;2024-03-08T11:34:32;18.90;;;8.97;;
4939;SDS011;2485;49.326;7.214;2024-03-08T11:37:00;18.40;;;9.77;;
4939;SDS011;2485;49.326;7.214;2024-03-08T11:39:29;25.17;;;12.17;;
4939;SDS011;2485;49.326;7.214;2024-03-08T11:41:57;20.43;;;11.00;;
4939;SDS011;2485;49.326;7.214;2024-03-08T11:44:26;15.77;;;8.40;;
4939;SDS011;2485;49.326;7.214;2024-03-08T11:46:54;18.90;;;10.87;;
4939;SDS011;2485;49.326;7.214;2024-03-08T11:49:23;16.60;;;10.23;;
4939;SDS011;2485;49.326;7.214;2024-03-08T11:51:52;18.67;;;10.20;;
4939;SDS011;2485;49.326;7.214;2024-03-08T11:54:21;18.00;;;9.90;;
4939;SDS011;2485;49.326;7.214;2024-03-08T11:56:53;18.93;;;10.93;;
4939;SDS011;2485;49.326;7.214;2024-03-08T11:59:21;23.93;;;12.47;;
4939;SDS011;2485;49.326;7.214;2024-03-08T12:02:01;18.37;;;9.80;;
4939;SDS011;2485;49.326;7.214;2024-03-08T12:04:30;23.93;;;10.20;;
4939;SDS011;2485;49.326;7.214;2024-03-08T12:06:59;22.27;;;11.77;;
4939;SDS011;2485;49.326;7.214;2024-03-08T12:09:34;16.90;;;8.70;;
4939;SDS011;2485;49.326;7.214;2024-03-08T12:12:07;21.03;;;12.30;;
4939;SDS011;2485;49.326;7.214;2024-03-08T12:14:35;17.67;;;10.70;;
4939;SDS011;2485;49.326;7.214;2024-03-08T12:17:02;20.97;;;12.50;;
4939;SDS011;2485;49.326;7.214;2024-03-08T12:19:30;13.80;;;7.97;;
4939;SDS011;2485;49.326;7.214;2024-03-08T12:21:58;20.17;;;11.60;;
4939;SDS011;2485;49.326;7.214;2024-03-08T12:24:35;15.53;;;8.37;;
4939;SDS011;2485;49.326;7.214;2024-03-08T12:29:49;20.90;;;12.97;;
4939;SDS011;2485;49.326;7.214;2024-03-08T12:32:20;12.90;;;8.00;;
4939;SDS011;2485;49.326;7.214;2024-03-08T12:34:51;20.77;;;12.10;;
4939;SDS011;2485;49.326;7.214;2024-03-08T12:37:19;18.50;;;9.20;;
4939;SDS011;2485;49.326;7.214;2024-03-08T12:39:49;17.30;;;9.70;;
4939;SDS011;2485;49.326;7.214;2024-03-08T12:42:17;20.40;;;10.90;;
4939;SDS011;2485;49.326;7.214;2024-03-08T12:44:45;13.47;;;7.70;;
4939;SDS011;2485;49.326;7.214;2024-03-08T12:47:14;23.27;;;11.30;;
4939;SDS011;2485;49.326;7.214;2024-03-08T12:49:42;19.70;;;11.27;;
4939;SDS011;2485;49.326;7.214;2024-03-08T12:52:10;19.53;;;10.87;;
4939;SDS011;2485;49.326;7.214;2024-03-08T12:54:38;22.63;;;12.77;;
4939;SDS011;2485;49.326;7.214;2024-03-08T12:57:06;17.80;;;10.40;;
4939;SDS011;2485;49.326;7.214;2024-03-08T12:59:33;20.00;;;9.50;;
4939;SDS011;2485;49.326;7.214;2024-03-08T13:02:03;23.90;;;11.50;;
4939;SDS011;2485;49.326;7.214;2024-03-08T13:04:38;22.03;;;12.50;;
4939;SDS011;2485;49.326;7.214;2024-03-08T13:07:06;18.40;;;10.27;;
4939;SDS011;2485;49.326;7.214;2024-03-08T13:09:34;14.80;;;8.63;;
4939;SDS011;2485;49.326;7.214;2024-03-08T13:12:03;18.03;;;10.50;;
4939;SDS011;2485;49.326;7.214;2024-03-08T13:14:31;17.87;;;9.87;;
4939;SDS011;2485;49.326;7.214;2024-03-08T13:17:01;19.00;;;10.73;;
4939;SDS011;2485;49.326;7.214;2024-03-08T13:19:29;23.47;;;12.67;;
4939;SDS011;2485;49.326;7.214;2024-03-08T13:22:01;18.83;;;9.13;;
4939;SDS011;2485;49.326;7.214;2024-03-08T13:24:31;14.87;;;8.70;;
4939;SDS011;2485;49.326;7.214;2024-03-08T13:26:59;15.10;;;9.17;;
4939;SDS011;2485;49.326;7.214;2024-03-08T13:29:27;19.40;;;8.77;;
4939;SDS011;2485;49.326;7.214;2024-03-08T13:31:55;19.87;;;11.50;;
4939;SDS011;2485;49.326;7.214;2024-03-08T13:34:27;17.93;;;9.00;;
4939;SDS011;2485;49.326;7.214;2024-03-08T13:36:56;12.80;;;6.80;;
4939;SDS011;2485;49.326;7.214;2024-03-08T13:39:29;16.33;;;9.40;;
4939;SDS011;2485;49.326;7.214;2024-03-08T13:42:06;17.60;;;9.37;;
4939;SDS011;2485;49.326;7.214;2024-03-08T13:44:35;15.20;;;8.10;;
4939;SDS011;2485;49.326;7.214;2024-03-08T13:47:03;20.77;;;11.47;;
4939;SDS011;2485;49.326;7.214;2024-03-08T13:49:32;13.07;;;7.03;;
4939;SDS011;2485;49.326;7.214;2024-03-08T13:52:02;18.13;;;10.20;;
4939;SDS011;2485;49.326;7.214;2024-03-08T13:54:31;18.47;;;11.20;;
4939;SDS011;2485;49.326;7.214;2024-03-08T13:57:00;14.30;;;9.60;;
4939;SDS011;2485;49.326;7.214;2024-03-08T13:59:29;17.20;;;10.67;;
4939;SDS011;2485;49.326;7.214;2024-03-08T14:01:58;18.73;;;10.30;;
4939;SDS011;2485;49.326;7.214;2024-03-08T14:04:27;20.90;;;10.67;;
4939;SDS011;2485;49.326;7.214;2024-03-08T14:06:55;13.97;;;9.03;;
4939;SDS011;2485;49.326;7.214;2024-03-08T14:09:28;11.33;;;6.70;;
4939;SDS011;2485;49.326;7.214;2024-03-08T14:11:58;16.60;;;10.10;;
4939;SDS011;2485;49.326;7.214;2024-03-08T14:14:28;15.50;;;9.10;;
4939;SDS011;2485;49.326;7.214;2024-03-08T14:16:56;17.80;;;10.67;;
4939;SDS011;2485;49.326;7.214;2024-03-08T14:19:25;15.47;;;8.00;;
4939;SDS011;2485;49.326;7.214;2024-03-08T14:21:52;17.40;;;9.40;;
4939;SDS011;2485;49.326;7.214;2024-03-08T14:24:20;12.17;;;7.80;;
4939;SDS011;2485;49.326;7.214;2024-03-08T14:26:49;17.50;;;11.67;;
4939;SDS011;2485;49.326;7.214;2024-03-08T14:29:18;14.93;;;9.23;;
4939;SDS011;2485;49.326;7.214;2024-03-08T14:31:46;17.47;;;10.07;;
4939;SDS011;2485;49.326;7.214;2024-03-08T14:34:17;19.50;;;10.10;;
4939;SDS011;2485;49.326;7.214;2024-03-08T14:36:45;12.87;;;7.93;;
4939;SDS011;2485;49.326;7.214;2024-03-08T14:39:13;11.60;;;6.53;;
4939;SDS011;2485;49.326;7.214;2024-03-08T14:41:47;17.73;;;9.80;;
4939;SDS011;2485;49.326;7.214;2024-03-08T14:44:19;14.83;;;9.20;;
4939;SDS011;2485;49.326;7.214;2024-03-08T14:46:51;16.50;;;10.70;;
4939;SDS011;2485;49.326;7.214;2024-03-08T14:49:19;20.63;;;12.50;;
4939;SDS011;2485;49.326;7.214;2024-03-08T14:51:47;17.43;;;8.40;;
4939;SDS011;2485;49.326;7.214;2024-03-08T14:54:14;15.87;;;10.00;;
4939;SDS011;2485;49.326;7.214;2024-03-08T14:56:42;20.20;;;9.37;;
4939;SDS011;2485;49.326;7.214;2024-03-08T14:59:11;19.47;;;10.50;;
4939;SDS011;2485;49.326;7.214;2024-03-08T15:01:41;17.90;;;9.60;;
4939;SDS011;2485;49.326;7.214;2024-03-08T15:04:09;20.50;;;10.60;;
4939;SDS011;2485;49.326;7.214;2024-03-08T15:06:37;15.40;;;9.37;;